createdAt,value
2022-10-30T00:01:19.426Z,56.32
2022-10-30T00:03:47.406Z,56.38
2022-10-30T00:06:15.119Z,58.44
2022-10-30T00:08:42.976Z,60.21
2022-10-30T00:11:12.768Z,61.79
2022-10-30T00:13:44.686Z,66.16
2022-10-30T00:16:12.463Z,65.65
2022-10-30T00:18:42.358Z,61.68
2022-10-30T00:21:12.732Z,59.18
2022-10-30T00:23:52.814Z,56.59
2022-10-30T00:26:23.069Z,57.93
2022-10-30T00:28:52.017Z,60.00
2022-10-30T00:31:20.641Z,61.69
2022-10-30T00:33:52.732Z,65.98
2022-10-30T00:42:57.318Z,56.98
2022-10-30T00:45:24.711Z,58.55
2022-10-30T00:47:58.041Z,59.86
2022-10-30T00:50:37.077Z,61.80
2022-10-30T00:53:11.787Z,66.49
2022-10-30T00:55:43.259Z,63.89
2022-10-30T00:58:14.755Z,60.60
2022-10-30T01:00:45.646Z,57.88
2022-10-30T01:03:12.701Z,58.00
2022-10-30T01:05:39.901Z,59.67
2022-10-30T01:08:06.140Z,61.34
2022-10-30T01:10:32.830Z,64.91
2022-10-30T01:13:00.177Z,64.38
2022-10-30T01:15:32.455Z,61.17
2022-10-30T01:18:04.899Z,57.85
2022-10-30T01:20:56.093Z,57.85
2022-10-30T01:24:01.150Z,59.53
2022-10-30T01:26:30.915Z,61.35
2022-10-30T01:29:27.298Z,65.59
2022-10-30T01:32:02.433Z,64.33
2022-10-30T01:37:35.847Z,56.14
2022-10-30T01:40:14.273Z,57.92
2022-10-30T01:42:51.121Z,59.96
2022-10-30T01:45:39.535Z,61.65
2022-10-30T01:48:35.433Z,66.12
2022-10-30T01:51:20.976Z,63.78
2022-10-30T01:54:09.703Z,59.28
2022-10-30T01:56:38.519Z,57.15
2022-10-30T01:59:14.370Z,58.69
2022-10-30T02:01:40.809Z,60.24
2022-10-30T02:04:10.445Z,62.18
2022-10-30T02:06:37.615Z,66.26
2022-10-30T02:09:05.323Z,65.07
2022-10-30T02:11:33.955Z,60.28
2022-10-30T02:14:04.279Z,57.37
2022-10-30T02:16:34.567Z,57.96
2022-10-30T02:19:02.029Z,59.91
2022-10-30T02:21:28.507Z,61.62
2022-10-30T02:23:54.788Z,66.13
2022-10-30T02:26:21.277Z,63.54
2022-10-30T02:28:47.846Z,60.05
2022-10-30T02:31:14.071Z,56.33
2022-10-30T02:33:45.251Z,56.96
2022-10-30T02:36:14.741Z,59.07
2022-10-30T02:38:42.433Z,60.91
2022-10-30T02:41:09.246Z,65.35
2022-10-30T02:43:36.693Z,62.85
2022-10-30T02:46:03.592Z,58.77
2022-10-30T02:48:30.628Z,56.23
2022-10-30T02:51:00.679Z,57.60
2022-10-30T02:53:28.351Z,59.61
2022-10-30T02:55:55.490Z,61.35
2022-10-30T02:58:22.224Z,65.65
2022-10-30T03:00:48.544Z,63.59
2022-10-30T03:03:17.528Z,59.92
2022-10-30T03:05:46.490Z,57.00
2022-10-30T03:08:12.806Z,57.88
2022-10-30T03:10:39.452Z,60.05
2022-10-30T03:13:05.692Z,61.98
2022-10-30T03:15:32.052Z,65.91
2022-10-30T03:17:58.541Z,65.73
2022-10-30T03:20:25.070Z,62.39
2022-10-30T03:22:51.320Z,57.93
2022-10-30T03:25:22.835Z,56.86
2022-10-30T03:27:52.368Z,58.62
2022-10-30T03:30:18.598Z,60.57
2022-10-30T03:32:44.948Z,63.86
2022-10-30T03:35:11.272Z,64.67
2022-10-30T03:37:37.587Z,60.00
2022-10-30T03:40:04.206Z,56.05
2022-10-30T03:42:31.262Z,57.02
2022-10-30T03:44:57.527Z,59.05
2022-10-30T03:47:23.784Z,60.60
2022-10-30T03:49:50.006Z,61.35
2022-10-30T03:52:18.444Z,66.78
2022-10-30T03:54:44.765Z,63.87
2022-10-30T03:57:12.464Z,60.48
2022-10-30T03:59:44.253Z,57.65
2022-10-30T04:02:30.954Z,58.12
2022-10-30T04:04:57.251Z,59.93
2022-10-30T04:07:23.624Z,62.16
2022-10-30T04:09:50.186Z,66.73
2022-10-30T04:12:16.477Z,65.55
2022-10-30T04:14:42.686Z,61.41
2022-10-30T04:19:41.135Z,57.57
2022-10-30T04:22:07.560Z,59.29
2022-10-30T04:24:34.520Z,60.89
2022-10-30T04:27:01.452Z,65.22
2022-10-30T04:29:27.714Z,62.75
2022-10-30T04:31:53.967Z,58.67
2022-10-30T04:34:20.393Z,56.38
2022-10-30T04:36:47.012Z,57.80
2022-10-30T04:39:13.433Z,59.73
2022-10-30T04:41:41.093Z,61.44
2022-10-30T04:44:13.043Z,66.10
2022-10-30T04:46:39.645Z,62.87
2022-10-30T04:49:09.409Z,56.97
2022-10-30T04:51:35.744Z,56.45
2022-10-30T04:54:03.273Z,58.25
2022-10-30T04:56:32.329Z,60.13
2022-10-30T04:58:59.449Z,61.58
2022-10-30T05:01:25.978Z,65.87
2022-10-30T05:03:54.689Z,64.05
2022-10-30T05:06:22.340Z,59.08
2022-10-30T05:08:49.807Z,55.67
2022-10-30T05:11:24.786Z,56.98
2022-10-30T05:13:51.561Z,59.14
2022-10-30T05:16:18.163Z,60.88
2022-10-30T05:18:44.422Z,65.01
2022-10-30T05:21:11.746Z,62.84
2022-10-30T05:23:38.656Z,60.07
2022-10-30T05:26:05.564Z,56.77
2022-10-30T05:28:32.448Z,56.59
2022-10-30T05:30:58.893Z,58.50
2022-10-30T05:33:43.741Z,60.22
2022-10-30T05:36:10.878Z,62.09
2022-10-30T05:38:37.096Z,66.46
2022-10-30T05:41:03.761Z,64.03
2022-10-30T05:43:30.605Z,60.66
2022-10-30T05:45:56.968Z,57.89
2022-10-30T05:48:23.424Z,58.25
2022-10-30T05:50:50.097Z,59.91
2022-10-30T05:53:24.510Z,61.58
2022-10-30T05:55:56.285Z,66.08
2022-10-30T05:58:23.403Z,63.63
2022-10-30T06:00:50.328Z,60.19
2022-10-30T06:03:20.027Z,56.84
2022-10-30T06:05:47.360Z,56.85
2022-10-30T06:08:17.137Z,58.88
2022-10-30T06:10:44.583Z,60.84
2022-10-30T06:13:17.107Z,64.76
2022-10-30T06:15:56.561Z,64.43
2022-10-30T06:18:24.794Z,61.38
2022-10-30T06:20:56.719Z,59.07
2022-10-30T06:23:23.043Z,57.27
2022-10-30T06:25:54.873Z,58.68
2022-10-30T06:28:25.872Z,60.65
2022-10-30T06:30:53.847Z,64.45
2022-10-30T06:33:20.468Z,64.25
2022-10-30T06:35:50.840Z,61.31
2022-10-30T06:38:18.224Z,59.35
2022-10-30T06:40:45.510Z,56.89
2022-10-30T06:43:30.818Z,57.81
2022-10-30T06:46:04.824Z,59.99
2022-10-30T06:48:32.577Z,62.03
2022-10-30T06:51:02.395Z,66.19
2022-10-30T06:53:31.691Z,64.69
2022-10-30T06:56:18.049Z,61.41
2022-10-30T06:59:23.656Z,57.68
2022-10-30T07:01:55.743Z,58.43
2022-10-30T07:04:26.072Z,60.40
2022-10-30T07:06:54.624Z,62.00
2022-10-30T07:09:21.178Z,65.69
2022-10-30T07:11:52.155Z,65.58
2022-10-30T07:14:26.961Z,62.42
2022-10-30T07:17:13.888Z,59.63
2022-10-30T07:19:43.051Z,57.04
2022-10-30T07:22:09.507Z,58.19
2022-10-30T07:24:37.707Z,60.16
2022-10-30T07:27:28.240Z,61.75
2022-10-30T07:30:21.035Z,66.13
2022-10-30T07:33:08.350Z,64.84
2022-10-30T07:35:55.585Z,60.63
2022-10-30T07:38:40.402Z,56.95
2022-10-30T07:41:32.888Z,57.73
2022-10-30T07:44:17.812Z,59.45
2022-10-30T07:46:54.884Z,60.95
2022-10-30T07:49:44.168Z,65.66
2022-10-30T07:52:16.336Z,63.04
2022-10-30T07:54:45.943Z,58.60
2022-10-30T07:57:42.016Z,56.58
2022-10-30T08:00:28.448Z,57.77
2022-10-30T08:03:00.635Z,59.43
2022-10-30T08:05:35.151Z,60.58
2022-10-30T08:08:08.214Z,61.23
2022-10-30T08:10:35.407Z,61.55
2022-10-30T08:13:02.335Z,66.01
2022-10-30T08:15:28.823Z,64.47
2022-10-30T08:17:55.378Z,58.90
2022-10-30T08:20:23.941Z,54.74
2022-10-30T08:22:55.905Z,54.42
2022-10-30T08:25:28.065Z,56.02
2022-10-30T08:28:00.357Z,57.38
2022-10-30T08:30:33.683Z,59.04
2022-10-30T08:33:02.574Z,59.97
2022-10-30T08:35:52.922Z,60.57
2022-10-30T08:38:19.761Z,60.48
2022-10-30T08:40:52.666Z,61.62
2022-10-30T08:43:19.995Z,66.67
2022-10-30T08:45:46.617Z,64.33
2022-10-30T08:48:15.664Z,56.77
2022-10-30T08:50:44.038Z,54.56
2022-10-30T08:53:14.305Z,55.22
2022-10-30T08:55:41.472Z,57.10
2022-10-30T08:58:14.243Z,57.77
2022-10-30T09:00:40.724Z,58.99
2022-10-30T09:03:10.037Z,59.96
2022-10-30T09:06:00.405Z,60.72
2022-10-30T09:08:45.900Z,61.23
2022-10-30T09:11:32.430Z,66.58
2022-10-30T09:13:58.897Z,63.53
2022-10-30T09:16:25.329Z,57.38
2022-10-30T09:18:51.627Z,55.45
2022-10-30T09:21:17.984Z,55.74
2022-10-30T09:23:47.864Z,56.38
2022-10-30T09:26:32.947Z,58.29
2022-10-30T09:29:22.620Z,59.51
2022-10-30T09:32:13.062Z,59.14
2022-10-30T09:34:49.041Z,60.16
2022-10-30T09:37:25.921Z,60.59
2022-10-30T09:39:54.841Z,60.88
2022-10-30T09:42:46.561Z,61.70
2022-10-30T09:45:42.605Z,65.14
2022-10-30T09:48:24.231Z,64.00
2022-10-30T09:51:14.100Z,58.78
2022-10-30T09:54:08.705Z,55.75
2022-10-30T09:57:01.272Z,56.83
2022-10-30T09:59:35.774Z,58.35
2022-10-30T10:02:33.756Z,59.04
2022-10-30T10:05:06.825Z,58.71
2022-10-30T10:08:17.992Z,60.25
2022-10-30T10:11:18.120Z,60.25
2022-10-30T10:14:01.167Z,60.75
2022-10-30T10:16:35.964Z,60.85
2022-10-30T10:19:14.605Z,61.40
2022-10-30T10:22:00.761Z,61.31
2022-10-30T10:24:36.583Z,61.62
2022-10-30T10:27:41.968Z,61.79
2022-10-30T10:30:14.980Z,61.64
2022-10-30T10:33:10.120Z,61.94
2022-10-30T10:35:56.705Z,65.63
2022-10-30T10:38:22.982Z,65.08
2022-10-30T10:40:55.657Z,58.76
2022-10-30T10:43:36.340Z,55.87
2022-10-30T10:46:08.662Z,55.43
2022-10-30T10:48:56.676Z,55.96
2022-10-30T10:51:31.073Z,57.26
2022-10-30T10:54:07.290Z,58.48
2022-10-30T10:56:37.453Z,57.99
2022-10-30T10:59:12.097Z,58.39
2022-10-30T11:01:40.555Z,58.35
2022-10-30T11:04:38.145Z,60.90
2022-10-30T11:07:21.064Z,59.99
2022-10-30T11:09:51.757Z,61.59
2022-10-30T11:12:24.914Z,61.01
2022-10-30T11:14:51.119Z,61.49
2022-10-30T11:17:24.074Z,60.91
2022-10-30T11:19:56.696Z,61.04
2022-10-30T11:22:33.148Z,63.25
2022-10-30T11:25:26.955Z,65.73
2022-10-30T11:27:59.666Z,56.52
2022-10-30T11:30:28.051Z,54.24
2022-10-30T11:32:57.232Z,53.79
2022-10-30T11:35:24.775Z,54.74
2022-10-30T11:38:11.763Z,56.40
2022-10-30T11:40:40.400Z,57.77
2022-10-30T11:43:10.388Z,59.06
2022-10-30T11:45:42.812Z,59.30
2022-10-30T11:48:25.005Z,59.73
2022-10-30T11:50:55.641Z,60.36
2022-10-30T11:53:30.407Z,61.40
2022-10-30T11:55:58.215Z,62.06
2022-10-30T11:58:29.947Z,61.66
2022-10-30T12:01:12.795Z,63.27
2022-10-30T12:03:41.047Z,64.88
2022-10-30T12:06:18.735Z,59.94
2022-10-30T12:09:19.839Z,55.17
2022-10-30T12:11:47.098Z,53.26
2022-10-30T12:14:19.364Z,53.96
2022-10-30T12:16:51.591Z,54.32
2022-10-30T12:19:22.091Z,55.10
2022-10-30T12:21:52.774Z,56.14
2022-10-30T12:24:33.519Z,57.39
2022-10-30T12:27:11.494Z,58.35
2022-10-30T12:30:06.878Z,58.95
2022-10-30T12:32:39.676Z,59.10
2022-10-30T12:35:16.803Z,60.05
2022-10-30T12:37:43.799Z,60.55
2022-10-30T12:40:19.906Z,60.94
2022-10-30T12:43:05.464Z,61.66
2022-10-30T12:45:43.819Z,61.94
2022-10-30T12:48:10.378Z,61.60
2022-10-30T12:51:01.189Z,61.93
2022-10-30T12:53:38.051Z,61.89
2022-10-30T12:56:12.562Z,66.41
2022-10-30T12:59:11.272Z,62.43
2022-10-30T13:01:47.938Z,55.51
2022-10-30T13:04:21.404Z,54.59
2022-10-30T13:07:07.994Z,55.35
2022-10-30T13:10:03.166Z,56.11
2022-10-30T13:12:38.032Z,57.73
2022-10-30T13:15:23.389Z,59.01
2022-10-30T13:17:50.264Z,59.39
2022-10-30T13:20:17.494Z,60.13
2022-10-30T13:22:50.266Z,60.44
2022-10-30T13:26:03.241Z,60.84
2022-10-30T13:28:38.232Z,60.99
2022-10-30T13:31:04.566Z,61.57
2022-10-30T13:33:52.650Z,61.84
2022-10-30T13:36:33.583Z,66.33
2022-10-30T13:39:10.881Z,62.70
2022-10-30T13:42:10.688Z,55.56
2022-10-30T13:44:55.497Z,54.09
2022-10-30T13:47:47.093Z,55.55
2022-10-30T13:50:27.164Z,57.27
2022-10-30T13:52:58.066Z,58.25
2022-10-30T13:55:26.597Z,59.49
2022-10-30T13:58:14.829Z,60.63
2022-10-30T14:01:08.724Z,61.09
2022-10-30T14:03:50.685Z,65.59
2022-10-30T14:06:33.060Z,64.26
2022-10-30T14:09:16.515Z,58.06
2022-10-30T14:11:42.820Z,55.64
2022-10-30T14:14:12.056Z,56.14
2022-10-30T14:16:45.442Z,57.53
2022-10-30T14:19:12.859Z,58.25
2022-10-30T14:21:54.719Z,59.91
2022-10-30T14:24:23.004Z,60.56
2022-10-30T14:27:04.716Z,61.84
2022-10-30T14:29:34.122Z,66.98
2022-10-30T14:32:01.511Z,62.22
2022-10-30T14:34:44.361Z,56.56
2022-10-30T14:37:12.671Z,55.27
2022-10-30T14:39:47.345Z,57.23
2022-10-30T14:42:32.301Z,59.01
2022-10-30T14:45:20.543Z,60.18
2022-10-30T14:48:25.949Z,61.31
2022-10-30T14:51:04.887Z,66.50
2022-10-30T14:53:40.279Z,62.30
2022-10-30T14:59:30.477Z,57.01
2022-10-30T15:02:11.983Z,58.66
2022-10-30T15:04:56.847Z,60.10
2022-10-30T15:07:25.936Z,60.61
2022-10-30T15:10:16.368Z,64.97
2022-10-30T15:12:58.284Z,63.35
2022-10-30T15:15:27.713Z,57.07
2022-10-30T15:17:58.848Z,56.44
2022-10-30T15:20:29.101Z,58.14
2022-10-30T15:22:59.940Z,59.76
2022-10-30T15:25:32.873Z,61.21
2022-10-30T15:27:59.837Z,65.68
2022-10-30T15:30:27.041Z,62.84
2022-10-30T15:32:53.888Z,57.27
2022-10-30T15:35:21.698Z,56.53
2022-10-30T15:38:09.699Z,57.92
2022-10-30T15:40:39.434Z,59.77
2022-10-30T15:43:10.508Z,61.57
2022-10-30T15:45:40.607Z,66.34
2022-10-30T15:48:25.625Z,63.31
2022-10-30T15:51:12.346Z,58.24
2022-10-30T15:53:55.536Z,54.62
2022-10-30T15:56:27.846Z,56.26
2022-10-30T15:58:59.523Z,58.37
2022-10-30T16:01:30.668Z,59.86
2022-10-30T16:03:57.337Z,61.08
2022-10-30T16:06:31.602Z,65.76
2022-10-30T16:08:57.994Z,63.43
2022-10-30T16:11:26.131Z,58.70
2022-10-30T16:13:53.076Z,55.64
2022-10-30T16:16:26.068Z,56.51
2022-10-30T16:18:57.404Z,58.40
2022-10-30T16:21:25.611Z,60.29
2022-10-30T16:23:54.573Z,61.73
2022-10-30T16:26:25.980Z,66.02
2022-10-30T16:28:52.505Z,63.59
2022-10-30T16:31:19.777Z,59.59
2022-10-30T16:33:47.083Z,56.38
2022-10-30T16:36:16.373Z,56.95
2022-10-30T16:38:45.947Z,58.69
2022-10-30T16:41:13.131Z,60.21
2022-10-30T16:43:40.907Z,61.58
2022-10-30T16:46:34.092Z,66.14
2022-10-30T16:49:03.560Z,62.01
2022-10-30T16:51:30.308Z,56.43
2022-10-30T16:53:56.822Z,56.07
2022-10-30T16:56:31.272Z,57.60
2022-10-30T16:59:07.120Z,59.25
2022-10-30T17:01:34.661Z,60.64
2022-10-30T17:04:01.115Z,61.93
2022-10-30T17:06:35.120Z,66.10
2022-10-30T17:09:07.823Z,63.23
2022-10-30T17:11:41.244Z,57.42
2022-10-30T17:14:18.932Z,56.50
2022-10-30T17:17:27.710Z,58.01
2022-10-30T17:20:18.802Z,59.55
2022-10-30T17:22:47.197Z,60.97
2022-10-30T17:25:38.016Z,65.49
2022-10-30T17:28:05.673Z,62.26
2022-10-30T17:30:40.200Z,55.84
2022-10-30T17:33:25.366Z,54.91
2022-10-30T17:35:52.101Z,56.93
2022-10-30T17:38:18.594Z,58.78
2022-10-30T17:40:45.018Z,60.25
2022-10-30T17:43:15.050Z,61.71
2022-10-30T17:45:42.965Z,65.77
2022-10-30T17:48:17.360Z,63.62
2022-10-30T17:50:44.318Z,57.09
2022-10-30T17:53:17.892Z,55.03
2022-10-30T17:55:48.716Z,56.58
2022-10-30T17:58:16.951Z,58.46
2022-10-30T18:00:43.400Z,60.00
2022-10-30T18:03:09.728Z,61.26
2022-10-30T18:05:36.593Z,65.90
2022-10-30T18:08:03.007Z,63.05
2022-10-30T18:10:29.404Z,56.39
2022-10-30T18:12:57.360Z,54.85
2022-10-30T18:15:29.286Z,56.46
2022-10-30T18:17:55.668Z,58.11
2022-10-30T18:20:22.721Z,59.97
2022-10-30T18:22:49.020Z,61.44
2022-10-30T18:25:28.104Z,66.38
2022-10-30T18:27:54.373Z,63.03
2022-10-30T18:30:20.812Z,55.72
2022-10-30T18:32:47.546Z,54.44
2022-10-30T18:35:32.941Z,56.33
2022-10-30T18:37:59.436Z,58.31
2022-10-30T18:40:25.701Z,59.89
2022-10-30T18:42:51.975Z,61.13
2022-10-30T18:45:22.569Z,65.71
2022-10-30T18:47:50.246Z,63.09
2022-10-30T18:50:18.755Z,56.14
2022-10-30T18:52:45.138Z,54.92
2022-10-30T18:55:21.680Z,56.66
2022-10-30T18:57:49.543Z,58.56
2022-10-30T19:00:18.775Z,60.14
2022-10-30T19:02:45.788Z,61.47
2022-10-30T19:05:26.211Z,66.75
2022-10-30T19:07:52.936Z,63.08
2022-10-30T19:10:19.204Z,56.26
2022-10-30T19:13:04.165Z,54.96
2022-10-30T19:15:34.488Z,56.96
2022-10-30T19:18:02.411Z,59.03
2022-10-30T19:20:44.017Z,60.66
2022-10-30T19:23:20.118Z,66.23
2022-10-30T19:25:47.077Z,63.10
2022-10-30T19:28:15.225Z,56.71
2022-10-30T19:30:49.460Z,55.29
2022-10-30T19:33:21.528Z,57.14
2022-10-30T19:36:00.380Z,59.21
2022-10-30T19:38:27.836Z,60.76
2022-10-30T19:40:54.175Z,65.50
2022-10-30T19:43:20.494Z,63.11
2022-10-30T19:45:51.252Z,55.79
2022-10-30T19:48:40.414Z,54.36
2022-10-30T19:51:08.660Z,56.09
2022-10-30T19:53:35.141Z,57.69
2022-10-30T19:56:01.421Z,59.83
2022-10-30T19:58:27.702Z,61.04
2022-10-30T20:00:54.175Z,65.59
2022-10-30T20:03:21.035Z,63.69
2022-10-30T20:05:49.778Z,57.31
2022-10-30T20:08:21.645Z,54.69
2022-10-30T20:10:56.284Z,56.34
2022-10-30T20:13:24.521Z,58.32
2022-10-30T20:15:52.497Z,60.00
2022-10-30T20:18:21.540Z,61.35
2022-10-30T20:20:54.219Z,65.90
2022-10-30T20:23:22.246Z,64.25
2022-10-30T20:25:54.460Z,57.51
2022-10-30T20:28:23.422Z,54.62
2022-10-30T20:30:50.716Z,56.12
2022-10-30T20:33:18.888Z,58.03
2022-10-30T20:35:46.699Z,59.76
2022-10-30T20:38:17.253Z,61.16
2022-10-30T20:40:44.876Z,65.81
2022-10-30T20:43:20.090Z,63.85
2022-10-30T20:45:47.059Z,56.45
2022-10-30T20:48:13.919Z,54.64
2022-10-30T20:50:41.007Z,56.40
2022-10-30T20:53:11.620Z,58.50
2022-10-30T20:55:38.265Z,60.03
2022-10-30T20:58:05.563Z,61.29
2022-10-30T21:00:32.618Z,65.90
2022-10-30T21:03:01.653Z,63.73
2022-10-30T21:05:43.125Z,56.82
2022-10-30T21:08:11.556Z,54.93
2022-10-30T21:10:38.818Z,56.86
2022-10-30T21:13:08.909Z,58.71
2022-10-30T21:15:41.759Z,60.29
2022-10-30T21:18:09.053Z,61.60
2022-10-30T21:20:36.520Z,66.75
2022-10-30T21:23:03.147Z,64.50
2022-10-30T21:25:31.502Z,58.30
2022-10-30T21:27:57.981Z,54.51
2022-10-30T21:30:24.421Z,55.72
2022-10-30T21:32:50.712Z,57.69
2022-10-30T21:35:17.243Z,59.39
2022-10-30T21:37:43.478Z,60.82
2022-10-30T21:40:10.307Z,65.09
2022-10-30T21:42:36.540Z,64.49
2022-10-30T21:45:03.503Z,58.05
2022-10-30T21:47:29.835Z,54.88
2022-10-30T21:49:56.098Z,55.96
2022-10-30T21:52:22.400Z,58.00
2022-10-30T21:54:48.604Z,59.50
2022-10-30T21:57:14.872Z,60.79
2022-10-30T21:59:41.137Z,65.61
2022-10-30T22:02:12.828Z,63.93
2022-10-30T22:04:39.091Z,57.44
2022-10-30T22:07:05.363Z,54.44
2022-10-30T22:09:31.787Z,55.98
2022-10-30T22:11:58.090Z,57.91
2022-10-30T22:14:24.851Z,59.83
2022-10-30T22:16:51.105Z,61.19
2022-10-30T22:19:17.480Z,66.00
2022-10-30T22:21:43.692Z,63.95
2022-10-30T22:24:12.290Z,57.27
2022-10-30T22:26:38.617Z,54.75
2022-10-30T22:29:04.923Z,56.38
2022-10-30T22:31:31.208Z,58.15
2022-10-30T22:34:00.594Z,59.60
2022-10-30T22:36:30.471Z,60.94
2022-10-30T22:39:02.960Z,65.31
2022-10-30T22:41:34.424Z,64.26
2022-10-30T22:44:06.899Z,58.43
2022-10-30T22:46:33.284Z,55.25
2022-10-30T22:48:59.665Z,56.46
2022-10-30T22:51:26.048Z,58.33
2022-10-30T22:53:57.884Z,60.57
2022-10-30T22:56:27.083Z,61.88
2022-10-30T22:58:53.887Z,67.26
2022-10-30T23:01:28.795Z,64.86
2022-10-30T23:03:56.820Z,58.49
2022-10-30T23:06:23.680Z,54.33
2022-10-30T23:08:55.123Z,55.42
2022-10-30T23:11:22.036Z,57.58
2022-10-30T23:13:48.829Z,59.51
2022-10-30T23:16:18.078Z,60.94
2022-10-30T23:18:45.580Z,66.36
2022-10-30T23:21:15.256Z,63.15
2022-10-30T23:23:42.588Z,57.55
2022-10-30T23:26:14.965Z,55.60
2022-10-30T23:28:41.562Z,57.58
2022-10-30T23:31:09.313Z,59.87
2022-10-30T23:33:35.733Z,62.13
2022-10-30T23:36:03.506Z,67.69
2022-10-30T23:38:30.444Z,64.84
2022-10-30T23:40:56.849Z,59.49
2022-10-30T23:43:23.220Z,54.84
2022-10-30T23:45:49.612Z,55.48
2022-10-30T23:48:15.935Z,57.52
2022-10-30T23:50:42.151Z,59.36
2022-10-30T23:53:08.427Z,60.91
2022-10-30T23:55:34.795Z,65.75
2022-10-30T23:58:01.354Z,64.20
